sensor_id;sensor_type;location;lat;lon;timestamp;P1;durP1;ratioP1;P2;durP2;ratioP2
2558;SDS011;1289;53.488;10.006;2023-05-16T00:01:21;4.90;;;4.50;;
2558;SDS011;1289;53.488;10.006;2023-05-16T00:03:49;6.00;;;4.40;;
2558;SDS011;1289;53.488;10.006;2023-05-16T00:06:15;5.17;;;4.67;;
2558;SDS011;1289;53.488;10.006;2023-05-16T00:08:43;8.43;;;5.20;;
2558;SDS011;1289;53.488;10.006;2023-05-16T00:11:10;6.70;;;4.20;;
2558;SDS011;1289;53.488;10.006;2023-05-16T00:13:36;5.13;;;4.73;;
2558;SDS011;1289;53.488;10.006;2023-05-16T00:16:06;6.07;;;4.73;;
2558;SDS011;1289;53.488;10.006;2023-05-16T00:18:33;5.03;;;4.50;;
2558;SDS011;1289;53.488;10.006;2023-05-16T00:21:01;8.27;;;5.43;;
2558;SDS011;1289;53.488;10.006;2023-05-16T00:23:28;5.93;;;4.53;;
2558;SDS011;1289;53.488;10.006;2023-05-16T00:25:56;4.93;;;4.37;;
2558;SDS011;1289;53.488;10.006;2023-05-16T00:28:23;5.30;;;4.80;;
2558;SDS011;1289;53.488;10.006;2023-05-16T00:30:50;5.10;;;4.60;;
2558;SDS011;1289;53.488;10.006;2023-05-16T00:33:16;4.83;;;4.33;;
2558;SDS011;1289;53.488;10.006;2023-05-16T00:35:43;7.13;;;4.47;;
2558;SDS011;1289;53.488;10.006;2023-05-16T00:38:09;5.70;;;4.33;;
2558;SDS011;1289;53.488;10.006;2023-05-16T00:40:36;6.33;;;4.27;;
2558;SDS011;1289;53.488;10.006;2023-05-16T00:43:04;6.70;;;4.80;;
2558;SDS011;1289;53.488;10.006;2023-05-16T00:45:31;4.70;;;4.30;;
2558;SDS011;1289;53.488;10.006;2023-05-16T00:47:58;4.63;;;4.27;;
2558;SDS011;1289;53.488;10.006;2023-05-16T00:50:24;4.83;;;4.47;;
2558;SDS011;1289;53.488;10.006;2023-05-16T00:52:51;5.00;;;4.50;;
2558;SDS011;1289;53.488;10.006;2023-05-16T00:55:18;4.40;;;4.00;;
2558;SDS011;1289;53.488;10.006;2023-05-16T00:57:45;4.70;;;4.20;;
2558;SDS011;1289;53.488;10.006;2023-05-16T01:00:13;4.50;;;4.10;;
2558;SDS011;1289;53.488;10.006;2023-05-16T01:02:40;7.43;;;4.27;;
2558;SDS011;1289;53.488;10.006;2023-05-16T01:05:07;4.10;;;3.70;;
2558;SDS011;1289;53.488;10.006;2023-05-16T01:07:34;3.83;;;3.33;;
2558;SDS011;1289;53.488;10.006;2023-05-16T01:10:00;5.83;;;4.07;;
2558;SDS011;1289;53.488;10.006;2023-05-16T01:12:29;7.20;;;3.80;;
2558;SDS011;1289;53.488;10.006;2023-05-16T01:15:04;4.43;;;4.03;;
2558;SDS011;1289;53.488;10.006;2023-05-16T01:17:37;4.47;;;3.90;;
2558;SDS011;1289;53.488;10.006;2023-05-16T01:20:12;3.93;;;3.63;;
2558;SDS011;1289;53.488;10.006;2023-05-16T01:22:49;3.90;;;3.60;;
2558;SDS011;1289;53.488;10.006;2023-05-16T01:28:24;6.13;;;4.50;;
2558;SDS011;1289;53.488;10.006;2023-05-16T01:30:52;4.63;;;4.10;;
2558;SDS011;1289;53.488;10.006;2023-05-16T01:33:19;5.70;;;5.00;;
2558;SDS011;1289;53.488;10.006;2023-05-16T01:35:47;6.63;;;4.87;;
2558;SDS011;1289;53.488;10.006;2023-05-16T01:38:20;5.40;;;4.90;;
2558;SDS011;1289;53.488;10.006;2023-05-16T01:40:52;6.10;;;5.50;;
2558;SDS011;1289;53.488;10.006;2023-05-16T01:43:27;6.73;;;6.07;;
2558;SDS011;1289;53.488;10.006;2023-05-16T01:46:01;5.60;;;5.10;;
2558;SDS011;1289;53.488;10.006;2023-05-16T01:48:31;7.40;;;5.17;;
2558;SDS011;1289;53.488;10.006;2023-05-16T01:51:01;5.33;;;4.93;;
2558;SDS011;1289;53.488;10.006;2023-05-16T01:53:31;5.63;;;5.13;;
2558;SDS011;1289;53.488;10.006;2023-05-16T01:55:59;8.87;;;6.00;;
2558;SDS011;1289;53.488;10.006;2023-05-16T01:58:28;8.00;;;6.80;;
2558;SDS011;1289;53.488;10.006;2023-05-16T02:00:59;8.20;;;7.17;;
2558;SDS011;1289;53.488;10.006;2023-05-16T02:03:27;12.43;;;7.77;;
2558;SDS011;1289;53.488;10.006;2023-05-16T02:05:53;11.50;;;6.63;;
2558;SDS011;1289;53.488;10.006;2023-05-16T02:08:20;11.07;;;6.63;;
2558;SDS011;1289;53.488;10.006;2023-05-16T02:10:48;9.07;;;5.17;;
2558;SDS011;1289;53.488;10.006;2023-05-16T02:13:15;7.27;;;5.67;;
2558;SDS011;1289;53.488;10.006;2023-05-16T02:15:43;7.80;;;5.27;;
2558;SDS011;1289;53.488;10.006;2023-05-16T02:18:10;5.87;;;4.47;;
2558;SDS011;1289;53.488;10.006;2023-05-16T02:20:37;13.57;;;5.13;;
2558;SDS011;1289;53.488;10.006;2023-05-16T02:23:04;9.83;;;3.90;;
2558;SDS011;1289;53.488;10.006;2023-05-16T02:25:30;5.70;;;4.40;;
2558;SDS011;1289;53.488;10.006;2023-05-16T02:27:57;12.07;;;4.77;;
2558;SDS011;1289;53.488;10.006;2023-05-16T02:30:24;6.40;;;3.90;;
2558;SDS011;1289;53.488;10.006;2023-05-16T02:32:51;11.67;;;4.63;;
2558;SDS011;1289;53.488;10.006;2023-05-16T02:35:18;4.97;;;4.00;;
2558;SDS011;1289;53.488;10.006;2023-05-16T02:37:45;7.37;;;3.83;;
2558;SDS011;1289;53.488;10.006;2023-05-16T02:40:12;6.70;;;3.90;;
2558;SDS011;1289;53.488;10.006;2023-05-16T02:42:39;7.13;;;3.90;;
2558;SDS011;1289;53.488;10.006;2023-05-16T02:45:06;8.70;;;4.53;;
2558;SDS011;1289;53.488;10.006;2023-05-16T02:47:33;9.57;;;4.63;;
2558;SDS011;1289;53.488;10.006;2023-05-16T02:50:02;7.27;;;4.07;;
2558;SDS011;1289;53.488;10.006;2023-05-16T02:52:29;13.80;;;5.83;;
2558;SDS011;1289;53.488;10.006;2023-05-16T02:54:55;5.80;;;3.87;;
2558;SDS011;1289;53.488;10.006;2023-05-16T02:57:22;4.80;;;3.90;;
2558;SDS011;1289;53.488;10.006;2023-05-16T02:59:48;8.23;;;4.50;;
2558;SDS011;1289;53.488;10.006;2023-05-16T03:02:15;7.23;;;4.20;;
2558;SDS011;1289;53.488;10.006;2023-05-16T03:04:42;8.60;;;3.73;;
2558;SDS011;1289;53.488;10.006;2023-05-16T03:07:10;5.90;;;4.20;;
2558;SDS011;1289;53.488;10.006;2023-05-16T03:09:37;10.00;;;4.07;;
2558;SDS011;1289;53.488;10.006;2023-05-16T03:12:03;5.87;;;4.10;;
2558;SDS011;1289;53.488;10.006;2023-05-16T03:14:35;7.80;;;5.17;;
2558;SDS011;1289;53.488;10.006;2023-05-16T03:17:02;8.20;;;4.03;;
2558;SDS011;1289;53.488;10.006;2023-05-16T03:19:29;4.43;;;4.03;;
2558;SDS011;1289;53.488;10.006;2023-05-16T03:21:55;8.30;;;4.27;;
2558;SDS011;1289;53.488;10.006;2023-05-16T03:24:24;8.73;;;4.20;;
2558;SDS011;1289;53.488;10.006;2023-05-16T03:26:50;11.47;;;3.93;;
2558;SDS011;1289;53.488;10.006;2023-05-16T03:29:19;7.80;;;3.80;;
2558;SDS011;1289;53.488;10.006;2023-05-16T03:31:46;6.60;;;4.40;;
2558;SDS011;1289;53.488;10.006;2023-05-16T03:34:13;8.53;;;4.73;;
2558;SDS011;1289;53.488;10.006;2023-05-16T03:36:40;9.10;;;4.87;;
2558;SDS011;1289;53.488;10.006;2023-05-16T03:39:06;6.83;;;4.77;;
2558;SDS011;1289;53.488;10.006;2023-05-16T03:41:34;6.60;;;3.70;;
2558;SDS011;1289;53.488;10.006;2023-05-16T03:44:01;12.90;;;4.10;;
2558;SDS011;1289;53.488;10.006;2023-05-16T03:46:28;6.40;;;4.20;;
2558;SDS011;1289;53.488;10.006;2023-05-16T03:48:54;8.50;;;4.43;;
2558;SDS011;1289;53.488;10.006;2023-05-16T03:51:21;8.03;;;5.07;;
2558;SDS011;1289;53.488;10.006;2023-05-16T03:53:47;11.30;;;4.70;;
2558;SDS011;1289;53.488;10.006;2023-05-16T03:56:14;12.53;;;4.30;;
2558;SDS011;1289;53.488;10.006;2023-05-16T03:58:42;7.63;;;5.10;;
2558;SDS011;1289;53.488;10.006;2023-05-16T04:01:08;7.50;;;4.70;;
2558;SDS011;1289;53.488;10.006;2023-05-16T04:03:35;6.33;;;4.27;;
2558;SDS011;1289;53.488;10.006;2023-05-16T04:06:02;8.27;;;4.30;;
2558;SDS011;1289;53.488;10.006;2023-05-16T04:08:29;10.60;;;4.50;;
2558;SDS011;1289;53.488;10.006;2023-05-16T04:10:56;9.23;;;4.40;;
2558;SDS011;1289;53.488;10.006;2023-05-16T04:13:23;6.60;;;3.63;;
2558;SDS011;1289;53.488;10.006;2023-05-16T04:15:51;11.93;;;4.80;;
2558;SDS011;1289;53.488;10.006;2023-05-16T04:18:17;14.17;;;5.93;;
2558;SDS011;1289;53.488;10.006;2023-05-16T04:20:44;8.13;;;5.07;;
2558;SDS011;1289;53.488;10.006;2023-05-16T04:23:11;13.27;;;5.60;;
2558;SDS011;1289;53.488;10.006;2023-05-16T04:25:38;9.20;;;4.87;;
2558;SDS011;1289;53.488;10.006;2023-05-16T04:28:04;10.00;;;5.00;;
2558;SDS011;1289;53.488;10.006;2023-05-16T04:30:31;12.73;;;5.37;;
2558;SDS011;1289;53.488;10.006;2023-05-16T04:32:59;6.87;;;3.87;;
2558;SDS011;1289;53.488;10.006;2023-05-16T04:35:26;10.27;;;4.63;;
2558;SDS011;1289;53.488;10.006;2023-05-16T04:37:53;11.03;;;4.40;;
2558;SDS011;1289;53.488;10.006;2023-05-16T04:40:20;14.40;;;4.70;;
2558;SDS011;1289;53.488;10.006;2023-05-16T04:42:48;8.70;;;4.70;;
2558;SDS011;1289;53.488;10.006;2023-05-16T04:45:15;11.20;;;5.10;;
2558;SDS011;1289;53.488;10.006;2023-05-16T04:47:41;9.80;;;4.30;;
2558;SDS011;1289;53.488;10.006;2023-05-16T04:50:09;8.43;;;4.30;;
2558;SDS011;1289;53.488;10.006;2023-05-16T04:52:37;8.90;;;4.50;;
2558;SDS011;1289;53.488;10.006;2023-05-16T04:55:03;9.47;;;4.43;;
2558;SDS011;1289;53.488;10.006;2023-05-16T04:57:31;7.53;;;3.87;;
2558;SDS011;1289;53.488;10.006;2023-05-16T04:59:57;12.57;;;4.40;;
2558;SDS011;1289;53.488;10.006;2023-05-16T05:02:24;8.90;;;4.10;;
2558;SDS011;1289;53.488;10.006;2023-05-16T05:04:51;11.83;;;4.50;;
2558;SDS011;1289;53.488;10.006;2023-05-16T05:07:19;8.73;;;3.70;;
2558;SDS011;1289;53.488;10.006;2023-05-16T05:09:45;7.70;;;4.00;;
2558;SDS011;1289;53.488;10.006;2023-05-16T05:12:12;7.63;;;3.77;;
2558;SDS011;1289;53.488;10.006;2023-05-16T05:14:39;9.13;;;4.13;;
2558;SDS011;1289;53.488;10.006;2023-05-16T05:17:05;4.80;;;3.40;;
2558;SDS011;1289;53.488;10.006;2023-05-16T05:19:32;5.97;;;3.60;;
2558;SDS011;1289;53.488;10.006;2023-05-16T05:21:58;7.20;;;3.60;;
2558;SDS011;1289;53.488;10.006;2023-05-16T05:24:26;8.00;;;3.90;;
2558;SDS011;1289;53.488;10.006;2023-05-16T05:26:53;10.83;;;4.23;;
2558;SDS011;1289;53.488;10.006;2023-05-16T05:29:19;9.37;;;4.20;;
2558;SDS011;1289;53.488;10.006;2023-05-16T05:31:46;7.40;;;4.40;;
2558;SDS011;1289;53.488;10.006;2023-05-16T05:34:12;7.80;;;4.00;;
2558;SDS011;1289;53.488;10.006;2023-05-16T05:36:39;9.50;;;3.80;;
2558;SDS011;1289;53.488;10.006;2023-05-16T05:39:05;8.73;;;3.60;;
2558;SDS011;1289;53.488;10.006;2023-05-16T05:41:34;5.67;;;4.20;;
2558;SDS011;1289;53.488;10.006;2023-05-16T05:44:00;10.70;;;3.80;;
2558;SDS011;1289;53.488;10.006;2023-05-16T05:46:27;7.93;;;4.37;;
2558;SDS011;1289;53.488;10.006;2023-05-16T05:48:54;12.87;;;3.67;;
2558;SDS011;1289;53.488;10.006;2023-05-16T05:51:20;7.20;;;3.50;;
2558;SDS011;1289;53.488;10.006;2023-05-16T05:53:47;7.37;;;4.20;;
2558;SDS011;1289;53.488;10.006;2023-05-16T05:56:14;10.27;;;5.57;;
2558;SDS011;1289;53.488;10.006;2023-05-16T05:58:42;11.63;;;4.10;;
2558;SDS011;1289;53.488;10.006;2023-05-16T06:01:09;7.07;;;3.50;;
2558;SDS011;1289;53.488;10.006;2023-05-16T06:03:36;12.37;;;3.80;;
2558;SDS011;1289;53.488;10.006;2023-05-16T06:06:03;6.23;;;3.90;;
2558;SDS011;1289;53.488;10.006;2023-05-16T06:08:29;7.27;;;3.40;;
2558;SDS011;1289;53.488;10.006;2023-05-16T06:10:56;7.33;;;3.50;;
2558;SDS011;1289;53.488;10.006;2023-05-16T06:13:22;6.00;;;3.57;;
2558;SDS011;1289;53.488;10.006;2023-05-16T06:15:51;7.30;;;3.80;;
2558;SDS011;1289;53.488;10.006;2023-05-16T06:18:17;13.93;;;3.40;;
2558;SDS011;1289;53.488;10.006;2023-05-16T06:20:44;9.70;;;3.90;;
2558;SDS011;1289;53.488;10.006;2023-05-16T06:23:11;7.73;;;3.23;;
2558;SDS011;1289;53.488;10.006;2023-05-16T06:25:37;5.13;;;3.33;;
2558;SDS011;1289;53.488;10.006;2023-05-16T06:28:04;6.60;;;4.87;;
2558;SDS011;1289;53.488;10.006;2023-05-16T06:30:30;4.90;;;3.80;;
2558;SDS011;1289;53.488;10.006;2023-05-16T06:32:59;5.83;;;3.63;;
2558;SDS011;1289;53.488;10.006;2023-05-16T06:35:26;7.63;;;4.13;;
2558;SDS011;1289;53.488;10.006;2023-05-16T06:37:52;5.00;;;3.00;;
2558;SDS011;1289;53.488;10.006;2023-05-16T06:40:19;8.20;;;3.87;;
2558;SDS011;1289;53.488;10.006;2023-05-16T06:42:46;13.60;;;3.87;;
2558;SDS011;1289;53.488;10.006;2023-05-16T06:45:12;7.30;;;3.30;;
2558;SDS011;1289;53.488;10.006;2023-05-16T06:47:39;11.43;;;3.97;;
2558;SDS011;1289;53.488;10.006;2023-05-16T06:50:07;9.60;;;3.60;;
2558;SDS011;1289;53.488;10.006;2023-05-16T06:52:35;5.50;;;3.27;;
2558;SDS011;1289;53.488;10.006;2023-05-16T06:55:02;6.90;;;3.20;;
2558;SDS011;1289;53.488;10.006;2023-05-16T06:57:28;5.90;;;2.77;;
2558;SDS011;1289;53.488;10.006;2023-05-16T06:59:55;7.57;;;3.90;;
2558;SDS011;1289;53.488;10.006;2023-05-16T07:02:21;4.73;;;3.17;;
2558;SDS011;1289;53.488;10.006;2023-05-16T07:04:48;6.63;;;3.60;;
2558;SDS011;1289;53.488;10.006;2023-05-16T07:07:16;12.80;;;3.23;;
2558;SDS011;1289;53.488;10.006;2023-05-16T07:09:43;3.90;;;3.00;;
2558;SDS011;1289;53.488;10.006;2023-05-16T07:12:09;4.70;;;3.03;;
2558;SDS011;1289;53.488;10.006;2023-05-16T07:14:36;6.90;;;3.00;;
2558;SDS011;1289;53.488;10.006;2023-05-16T07:17:04;4.43;;;2.90;;
2558;SDS011;1289;53.488;10.006;2023-05-16T07:19:30;4.57;;;2.93;;
2558;SDS011;1289;53.488;10.006;2023-05-16T07:21:57;7.90;;;3.73;;
2558;SDS011;1289;53.488;10.006;2023-05-16T07:24:25;13.93;;;3.73;;
2558;SDS011;1289;53.488;10.006;2023-05-16T07:26:51;10.60;;;2.87;;
2558;SDS011;1289;53.488;10.006;2023-05-16T07:29:18;4.80;;;2.93;;
2558;SDS011;1289;53.488;10.006;2023-05-16T07:31:44;6.93;;;3.60;;
2558;SDS011;1289;53.488;10.006;2023-05-16T07:34:11;8.93;;;3.87;;
2558;SDS011;1289;53.488;10.006;2023-05-16T07:36:38;4.93;;;3.00;;
2558;SDS011;1289;53.488;10.006;2023-05-16T07:39:05;4.17;;;2.50;;
2558;SDS011;1289;53.488;10.006;2023-05-16T07:41:33;6.53;;;3.43;;
2558;SDS011;1289;53.488;10.006;2023-05-16T07:43:59;5.77;;;2.90;;
2558;SDS011;1289;53.488;10.006;2023-05-16T07:46:26;5.47;;;3.40;;
2558;SDS011;1289;53.488;10.006;2023-05-16T07:48:52;5.17;;;3.00;;
2558;SDS011;1289;53.488;10.006;2023-05-16T07:51:19;4.77;;;2.97;;
2558;SDS011;1289;53.488;10.006;2023-05-16T07:53:46;5.90;;;2.90;;
2558;SDS011;1289;53.488;10.006;2023-05-16T07:56:12;5.60;;;3.10;;
2558;SDS011;1289;53.488;10.006;2023-05-16T07:58:40;10.57;;;3.00;;
2558;SDS011;1289;53.488;10.006;2023-05-16T08:01:07;3.77;;;2.80;;
2558;SDS011;1289;53.488;10.006;2023-05-16T08:03:34;8.50;;;4.63;;
2558;SDS011;1289;53.488;10.006;2023-05-16T08:06:00;5.63;;;3.47;;
2558;SDS011;1289;53.488;10.006;2023-05-16T08:08:27;6.20;;;3.03;;
2558;SDS011;1289;53.488;10.006;2023-05-16T08:10:53;11.87;;;2.93;;
2558;SDS011;1289;53.488;10.006;2023-05-16T08:13:20;5.03;;;2.50;;
2558;SDS011;1289;53.488;10.006;2023-05-16T08:15:48;7.43;;;2.67;;
2558;SDS011;1289;53.488;10.006;2023-05-16T08:18:15;5.47;;;2.83;;
2558;SDS011;1289;53.488;10.006;2023-05-16T08:20:41;4.67;;;3.57;;
2558;SDS011;1289;53.488;10.006;2023-05-16T08:23:08;4.97;;;2.90;;
2558;SDS011;1289;53.488;10.006;2023-05-16T08:25:35;4.73;;;3.03;;
2558;SDS011;1289;53.488;10.006;2023-05-16T08:28:01;7.73;;;3.20;;
2558;SDS011;1289;53.488;10.006;2023-05-16T08:30:28;5.80;;;2.60;;
2558;SDS011;1289;53.488;10.006;2023-05-16T08:32:56;3.70;;;2.70;;
2558;SDS011;1289;53.488;10.006;2023-05-16T08:35:22;5.63;;;3.00;;
2558;SDS011;1289;53.488;10.006;2023-05-16T08:37:49;8.50;;;3.17;;
2558;SDS011;1289;53.488;10.006;2023-05-16T08:40:16;11.37;;;3.50;;
2558;SDS011;1289;53.488;10.006;2023-05-16T08:42:43;4.73;;;2.90;;
2558;SDS011;1289;53.488;10.006;2023-05-16T08:45:10;4.37;;;2.70;;
2558;SDS011;1289;53.488;10.006;2023-05-16T08:47:36;5.87;;;3.97;;
2558;SDS011;1289;53.488;10.006;2023-05-16T08:50:07;5.37;;;2.77;;
2558;SDS011;1289;53.488;10.006;2023-05-16T08:52:34;4.63;;;2.97;;
2558;SDS011;1289;53.488;10.006;2023-05-16T08:55:04;4.20;;;2.70;;
2558;SDS011;1289;53.488;10.006;2023-05-16T08:57:33;6.97;;;2.83;;
2558;SDS011;1289;53.488;10.006;2023-05-16T09:00:00;7.33;;;2.83;;
2558;SDS011;1289;53.488;10.006;2023-05-16T09:02:35;4.27;;;3.03;;
2558;SDS011;1289;53.488;10.006;2023-05-16T09:05:03;5.13;;;2.90;;
2558;SDS011;1289;53.488;10.006;2023-05-16T09:07:31;8.40;;;3.60;;
2558;SDS011;1289;53.488;10.006;2023-05-16T09:09:58;6.57;;;3.20;;
2558;SDS011;1289;53.488;10.006;2023-05-16T09:12:25;8.33;;;3.30;;
2558;SDS011;1289;53.488;10.006;2023-05-16T09:14:51;5.77;;;3.03;;
2558;SDS011;1289;53.488;10.006;2023-05-16T09:17:18;4.23;;;2.40;;
2558;SDS011;1289;53.488;10.006;2023-05-16T09:19:45;10.43;;;2.83;;
2558;SDS011;1289;53.488;10.006;2023-05-16T09:22:13;3.70;;;2.40;;
2558;SDS011;1289;53.488;10.006;2023-05-16T09:24:42;6.67;;;3.00;;
2558;SDS011;1289;53.488;10.006;2023-05-16T09:27:09;6.40;;;2.60;;
2558;SDS011;1289;53.488;10.006;2023-05-16T09:29:38;2.33;;;2.10;;
2558;SDS011;1289;53.488;10.006;2023-05-16T09:32:09;5.20;;;2.57;;
2558;SDS011;1289;53.488;10.006;2023-05-16T09:34:37;7.27;;;2.70;;
2558;SDS011;1289;53.488;10.006;2023-05-16T09:37:04;4.30;;;2.90;;
2558;SDS011;1289;53.488;10.006;2023-05-16T09:39:31;7.83;;;3.97;;
2558;SDS011;1289;53.488;10.006;2023-05-16T09:41:59;5.93;;;3.00;;
2558;SDS011;1289;53.488;10.006;2023-05-16T09:44:25;7.53;;;2.90;;
2558;SDS011;1289;53.488;10.006;2023-05-16T09:46:52;5.53;;;2.70;;
2558;SDS011;1289;53.488;10.006;2023-05-16T09:49:19;9.80;;;3.50;;
2558;SDS011;1289;53.488;10.006;2023-05-16T09:51:46;4.60;;;2.60;;
2558;SDS011;1289;53.488;10.006;2023-05-16T09:54:13;6.90;;;2.70;;
2558;SDS011;1289;53.488;10.006;2023-05-16T09:56:47;3.90;;;2.50;;
2558;SDS011;1289;53.488;10.006;2023-05-16T09:59:15;3.50;;;2.50;;
2558;SDS011;1289;53.488;10.006;2023-05-16T10:01:42;5.63;;;2.73;;
2558;SDS011;1289;53.488;10.006;2023-05-16T10:04:08;4.47;;;2.77;;
2558;SDS011;1289;53.488;10.006;2023-05-16T10:06:38;4.53;;;2.70;;
2558;SDS011;1289;53.488;10.006;2023-05-16T10:09:06;5.70;;;3.20;;
2558;SDS011;1289;53.488;10.006;2023-05-16T10:11:36;4.47;;;3.10;;
2558;SDS011;1289;53.488;10.006;2023-05-16T10:14:02;5.90;;;2.90;;
2558;SDS011;1289;53.488;10.006;2023-05-16T10:16:32;4.30;;;2.90;;
2558;SDS011;1289;53.488;10.006;2023-05-16T10:18:59;6.10;;;3.30;;
2558;SDS011;1289;53.488;10.006;2023-05-16T10:21:26;7.60;;;2.53;;
2558;SDS011;1289;53.488;10.006;2023-05-16T10:23:53;4.43;;;2.77;;
2558;SDS011;1289;53.488;10.006;2023-05-16T10:26:22;3.67;;;2.53;;
2558;SDS011;1289;53.488;10.006;2023-05-16T10:28:50;5.13;;;2.83;;
2558;SDS011;1289;53.488;10.006;2023-05-16T10:31:16;3.97;;;2.47;;
2558;SDS011;1289;53.488;10.006;2023-05-16T10:33:45;15.67;;;3.27;;
2558;SDS011;1289;53.488;10.006;2023-05-16T10:36:12;4.20;;;2.63;;
2558;SDS011;1289;53.488;10.006;2023-05-16T10:38:39;4.07;;;2.87;;
2558;SDS011;1289;53.488;10.006;2023-05-16T10:41:06;4.80;;;3.27;;
2558;SDS011;1289;53.488;10.006;2023-05-16T10:43:33;8.20;;;3.47;;
2558;SDS011;1289;53.488;10.006;2023-05-16T10:46:02;7.30;;;2.43;;
2558;SDS011;1289;53.488;10.006;2023-05-16T10:48:30;6.53;;;2.80;;
2558;SDS011;1289;53.488;10.006;2023-05-16T10:50:59;7.30;;;4.20;;
2558;SDS011;1289;53.488;10.006;2023-05-16T10:53:28;8.30;;;3.27;;
2558;SDS011;1289;53.488;10.006;2023-05-16T10:56:06;3.30;;;2.73;;
2558;SDS011;1289;53.488;10.006;2023-05-16T10:58:40;5.73;;;3.20;;
2558;SDS011;1289;53.488;10.006;2023-05-16T11:01:14;11.33;;;3.67;;
2558;SDS011;1289;53.488;10.006;2023-05-16T11:06:43;7.30;;;3.40;;
2558;SDS011;1289;53.488;10.006;2023-05-16T11:09:19;4.27;;;3.00;;
2558;SDS011;1289;53.488;10.006;2023-05-16T11:11:51;4.90;;;2.90;;
2558;SDS011;1289;53.488;10.006;2023-05-16T11:14:20;4.33;;;3.30;;
2558;SDS011;1289;53.488;10.006;2023-05-16T11:16:48;5.63;;;3.40;;
2558;SDS011;1289;53.488;10.006;2023-05-16T11:19:27;7.87;;;4.17;;
2558;SDS011;1289;53.488;10.006;2023-05-16T11:22:06;10.13;;;4.03;;
2558;SDS011;1289;53.488;10.006;2023-05-16T11:24:49;10.50;;;3.80;;
2558;SDS011;1289;53.488;10.006;2023-05-16T11:27:21;6.90;;;3.23;;
2558;SDS011;1289;53.488;10.006;2023-05-16T11:29:49;4.13;;;3.13;;
2558;SDS011;1289;53.488;10.006;2023-05-16T11:32:18;2.80;;;2.53;;
2558;SDS011;1289;53.488;10.006;2023-05-16T11:34:46;5.83;;;3.50;;
2558;SDS011;1289;53.488;10.006;2023-05-16T11:37:14;3.67;;;2.47;;
2558;SDS011;1289;53.488;10.006;2023-05-16T11:39:41;3.60;;;3.00;;
2558;SDS011;1289;53.488;10.006;2023-05-16T11:42:07;4.10;;;3.17;;
2558;SDS011;1289;53.488;10.006;2023-05-16T11:44:34;4.40;;;2.60;;
2558;SDS011;1289;53.488;10.006;2023-05-16T11:47:01;5.20;;;3.10;;
2558;SDS011;1289;53.488;10.006;2023-05-16T11:49:28;4.73;;;2.77;;
2558;SDS011;1289;53.488;10.006;2023-05-16T11:51:54;6.53;;;2.47;;
2558;SDS011;1289;53.488;10.006;2023-05-16T11:54:23;5.53;;;2.80;;
2558;SDS011;1289;53.488;10.006;2023-05-16T11:56:50;4.23;;;2.90;;
2558;SDS011;1289;53.488;10.006;2023-05-16T11:59:17;3.60;;;2.10;;
2558;SDS011;1289;53.488;10.006;2023-05-16T12:01:44;2.80;;;2.50;;
2558;SDS011;1289;53.488;10.006;2023-05-16T12:04:13;5.50;;;2.57;;
2558;SDS011;1289;53.488;10.006;2023-05-16T12:06:41;5.27;;;2.20;;
2558;SDS011;1289;53.488;10.006;2023-05-16T12:09:10;2.83;;;2.30;;
2558;SDS011;1289;53.488;10.006;2023-05-16T12:11:39;6.63;;;2.80;;
2558;SDS011;1289;53.488;10.006;2023-05-16T12:14:07;3.03;;;2.60;;
2558;SDS011;1289;53.488;10.006;2023-05-16T12:16:36;5.17;;;3.00;;
2558;SDS011;1289;53.488;10.006;2023-05-16T12:19:03;4.87;;;3.23;;
2558;SDS011;1289;53.488;10.006;2023-05-16T12:21:32;6.80;;;3.20;;
2558;SDS011;1289;53.488;10.006;2023-05-16T12:23:58;8.23;;;3.13;;
2558;SDS011;1289;53.488;10.006;2023-05-16T12:26:25;10.23;;;3.10;;
2558;SDS011;1289;53.488;10.006;2023-05-16T12:28:57;4.83;;;2.70;;
2558;SDS011;1289;53.488;10.006;2023-05-16T12:31:25;5.73;;;3.00;;
2558;SDS011;1289;53.488;10.006;2023-05-16T12:33:52;7.73;;;3.43;;
2558;SDS011;1289;53.488;10.006;2023-05-16T12:36:19;4.40;;;3.23;;
2558;SDS011;1289;53.488;10.006;2023-05-16T12:38:46;4.07;;;2.73;;
2558;SDS011;1289;53.488;10.006;2023-05-16T12:41:16;3.53;;;2.83;;
2558;SDS011;1289;53.488;10.006;2023-05-16T12:43:43;3.43;;;2.60;;
2558;SDS011;1289;53.488;10.006;2023-05-16T12:46:11;5.07;;;3.17;;
2558;SDS011;1289;53.488;10.006;2023-05-16T12:48:37;3.70;;;3.10;;
2558;SDS011;1289;53.488;10.006;2023-05-16T12:51:12;4.20;;;2.50;;
2558;SDS011;1289;53.488;10.006;2023-05-16T12:53:40;5.23;;;2.70;;
2558;SDS011;1289;53.488;10.006;2023-05-16T12:56:08;5.70;;;2.80;;
2558;SDS011;1289;53.488;10.006;2023-05-16T12:58:35;5.03;;;2.90;;
2558;SDS011;1289;53.488;10.006;2023-05-16T13:01:01;3.80;;;3.23;;
2558;SDS011;1289;53.488;10.006;2023-05-16T13:03:30;6.00;;;3.20;;
2558;SDS011;1289;53.488;10.006;2023-05-16T13:05:57;8.50;;;3.33;;
2558;SDS011;1289;53.488;10.006;2023-05-16T13:08:24;4.57;;;2.60;;
2558;SDS011;1289;53.488;10.006;2023-05-16T13:10:50;4.70;;;2.70;;
2558;SDS011;1289;53.488;10.006;2023-05-16T13:13:17;4.53;;;2.50;;
2558;SDS011;1289;53.488;10.006;2023-05-16T13:15:44;4.33;;;2.73;;
2558;SDS011;1289;53.488;10.006;2023-05-16T13:18:11;5.70;;;2.80;;
2558;SDS011;1289;53.488;10.006;2023-05-16T13:20:39;7.63;;;2.90;;
2558;SDS011;1289;53.488;10.006;2023-05-16T13:23:06;3.40;;;2.60;;
2558;SDS011;1289;53.488;10.006;2023-05-16T13:25:32;3.13;;;2.53;;
2558;SDS011;1289;53.488;10.006;2023-05-16T13:27:59;3.40;;;2.50;;
2558;SDS011;1289;53.488;10.006;2023-05-16T13:30:26;3.20;;;2.80;;
2558;SDS011;1289;53.488;10.006;2023-05-16T13:32:53;4.97;;;3.27;;
2558;SDS011;1289;53.488;10.006;2023-05-16T13:35:19;6.30;;;3.70;;
2558;SDS011;1289;53.488;10.006;2023-05-16T13:37:47;6.10;;;3.50;;
2558;SDS011;1289;53.488;10.006;2023-05-16T13:40:14;3.83;;;2.70;;
2558;SDS011;1289;53.488;10.006;2023-05-16T13:42:45;10.13;;;3.00;;
2558;SDS011;1289;53.488;10.006;2023-05-16T13:45:12;4.67;;;3.00;;
2558;SDS011;1289;53.488;10.006;2023-05-16T13:47:38;4.93;;;2.73;;
2558;SDS011;1289;53.488;10.006;2023-05-16T13:50:06;3.40;;;2.77;;
2558;SDS011;1289;53.488;10.006;2023-05-16T13:52:34;4.70;;;2.20;;
2558;SDS011;1289;53.488;10.006;2023-05-16T13:55:03;2.80;;;2.50;;
2558;SDS011;1289;53.488;10.006;2023-05-16T13:57:30;4.37;;;2.37;;
2558;SDS011;1289;53.488;10.006;2023-05-16T13:59:57;3.30;;;2.43;;
2558;SDS011;1289;53.488;10.006;2023-05-16T14:02:23;5.20;;;2.43;;
2558;SDS011;1289;53.488;10.006;2023-05-16T14:04:51;8.60;;;3.10;;
2558;SDS011;1289;53.488;10.006;2023-05-16T14:07:17;3.50;;;2.53;;
2558;SDS011;1289;53.488;10.006;2023-05-16T14:09:44;7.90;;;2.70;;
2558;SDS011;1289;53.488;10.006;2023-05-16T14:12:12;4.10;;;2.87;;
2558;SDS011;1289;53.488;10.006;2023-05-16T14:14:38;4.93;;;2.77;;
2558;SDS011;1289;53.488;10.006;2023-05-16T14:17:05;2.93;;;2.70;;
2558;SDS011;1289;53.488;10.006;2023-05-16T14:19:31;3.70;;;2.23;;
2558;SDS011;1289;53.488;10.006;2023-05-16T14:21:58;3.83;;;2.57;;
2558;SDS011;1289;53.488;10.006;2023-05-16T14:24:25;3.10;;;2.80;;
2558;SDS011;1289;53.488;10.006;2023-05-16T14:26:51;2.90;;;2.40;;
2558;SDS011;1289;53.488;10.006;2023-05-16T14:29:20;5.03;;;2.53;;
2558;SDS011;1289;53.488;10.006;2023-05-16T14:31:47;3.43;;;2.47;;
2558;SDS011;1289;53.488;10.006;2023-05-16T14:34:13;2.97;;;2.53;;
2558;SDS011;1289;53.488;10.006;2023-05-16T14:36:40;3.90;;;2.43;;
2558;SDS011;1289;53.488;10.006;2023-05-16T14:39:07;2.73;;;2.50;;
2558;SDS011;1289;53.488;10.006;2023-05-16T14:41:34;4.13;;;2.37;;
2558;SDS011;1289;53.488;10.006;2023-05-16T14:44:01;5.10;;;2.53;;
2558;SDS011;1289;53.488;10.006;2023-05-16T14:46:29;6.43;;;3.30;;
2558;SDS011;1289;53.488;10.006;2023-05-16T14:48:55;5.47;;;2.47;;
2558;SDS011;1289;53.488;10.006;2023-05-16T14:51:22;4.50;;;3.10;;
2558;SDS011;1289;53.488;10.006;2023-05-16T14:53:49;6.73;;;2.70;;
2558;SDS011;1289;53.488;10.006;2023-05-16T14:56:15;4.60;;;2.50;;
2558;SDS011;1289;53.488;10.006;2023-05-16T14:58:42;6.07;;;3.30;;
2558;SDS011;1289;53.488;10.006;2023-05-16T15:01:08;6.40;;;2.93;;
2558;SDS011;1289;53.488;10.006;2023-05-16T15:03:36;3.70;;;2.60;;
2558;SDS011;1289;53.488;10.006;2023-05-16T15:06:03;3.80;;;2.60;;
2558;SDS011;1289;53.488;10.006;2023-05-16T15:08:32;4.33;;;2.67;;